sensor_id;sensor_type;location;lat;lon;timestamp;P1;durP1;ratioP1;P2;durP2;ratioP2
15287;SDS011;7745;48.708;9.026;2023-10-09T00:01:42;17.73;;;5.47;;
15287;SDS011;7745;48.708;9.026;2023-10-09T00:04:09;18.83;;;6.10;;
15287;SDS011;7745;48.708;9.026;2023-10-09T00:06:37;15.97;;;5.67;;
15287;SDS011;7745;48.708;9.026;2023-10-09T00:09:04;14.70;;;5.23;;
15287;SDS011;7745;48.708;9.026;2023-10-09T00:11:55;13.60;;;4.93;;
15287;SDS011;7745;48.708;9.026;2023-10-09T00:14:25;12.93;;;5.20;;
15287;SDS011;7745;48.708;9.026;2023-10-09T00:16:55;14.47;;;5.10;;
15287;SDS011;7745;48.708;9.026;2023-10-09T00:19:30;15.07;;;5.10;;
15287;SDS011;7745;48.708;9.026;2023-10-09T00:21:58;18.40;;;4.77;;
15287;SDS011;7745;48.708;9.026;2023-10-09T00:24:31;15.23;;;5.43;;
15287;SDS011;7745;48.708;9.026;2023-10-09T00:26:59;19.60;;;5.70;;
15287;SDS011;7745;48.708;9.026;2023-10-09T00:29:38;15.80;;;5.30;;
15287;SDS011;7745;48.708;9.026;2023-10-09T00:32:10;18.30;;;5.90;;
15287;SDS011;7745;48.708;9.026;2023-10-09T00:34:40;19.17;;;5.80;;
15287;SDS011;7745;48.708;9.026;2023-10-09T00:37:08;20.37;;;5.40;;
15287;SDS011;7745;48.708;9.026;2023-10-09T00:39:41;17.37;;;5.60;;
15287;SDS011;7745;48.708;9.026;2023-10-09T00:42:09;14.97;;;5.67;;
15287;SDS011;7745;48.708;9.026;2023-10-09T00:44:41;17.13;;;5.07;;
15287;SDS011;7745;48.708;9.026;2023-10-09T00:47:09;19.90;;;5.80;;
15287;SDS011;7745;48.708;9.026;2023-10-09T00:49:47;17.37;;;4.90;;
15287;SDS011;7745;48.708;9.026;2023-10-09T00:52:16;12.37;;;5.17;;
15287;SDS011;7745;48.708;9.026;2023-10-09T00:54:52;17.67;;;5.37;;
15287;SDS011;7745;48.708;9.026;2023-10-09T00:57:25;19.17;;;4.80;;
15287;SDS011;7745;48.708;9.026;2023-10-09T00:59:58;14.80;;;5.53;;
15287;SDS011;7745;48.708;9.026;2023-10-09T01:02:26;14.30;;;5.17;;
15287;SDS011;7745;48.708;9.026;2023-10-09T01:05:03;19.83;;;5.00;;
15287;SDS011;7745;48.708;9.026;2023-10-09T01:07:44;15.93;;;5.67;;
15287;SDS011;7745;48.708;9.026;2023-10-09T01:10:12;14.60;;;5.83;;
15287;SDS011;7745;48.708;9.026;2023-10-09T01:12:41;13.87;;;5.20;;
15287;SDS011;7745;48.708;9.026;2023-10-09T01:15:11;11.30;;;4.77;;
15287;SDS011;7745;48.708;9.026;2023-10-09T01:18:00;13.00;;;5.37;;
15287;SDS011;7745;48.708;9.026;2023-10-09T01:20:32;12.27;;;4.97;;
15287;SDS011;7745;48.708;9.026;2023-10-09T01:23:08;13.20;;;5.00;;
15287;SDS011;7745;48.708;9.026;2023-10-09T01:25:36;18.87;;;5.53;;
15287;SDS011;7745;48.708;9.026;2023-10-09T01:28:09;12.90;;;5.20;;
15287;SDS011;7745;48.708;9.026;2023-10-09T01:30:41;14.63;;;4.83;;
15287;SDS011;7745;48.708;9.026;2023-10-09T01:33:08;13.87;;;5.10;;
15287;SDS011;7745;48.708;9.026;2023-10-09T01:35:47;15.50;;;5.23;;
15287;SDS011;7745;48.708;9.026;2023-10-09T01:38:17;14.47;;;5.20;;
15287;SDS011;7745;48.708;9.026;2023-10-09T01:40:49;20.60;;;5.33;;
15287;SDS011;7745;48.708;9.026;2023-10-09T01:43:17;12.97;;;5.03;;
15287;SDS011;7745;48.708;9.026;2023-10-09T01:45:44;12.07;;;4.57;;
15287;SDS011;7745;48.708;9.026;2023-10-09T01:48:11;16.07;;;5.03;;
15287;SDS011;7745;48.708;9.026;2023-10-09T01:50:43;13.77;;;4.50;;
15287;SDS011;7745;48.708;9.026;2023-10-09T01:53:13;14.40;;;5.70;;
15287;SDS011;7745;48.708;9.026;2023-10-09T01:55:45;11.53;;;4.90;;
15287;SDS011;7745;48.708;9.026;2023-10-09T01:58:12;11.93;;;5.40;;
15287;SDS011;7745;48.708;9.026;2023-10-09T02:00:49;19.53;;;5.50;;
15287;SDS011;7745;48.708;9.026;2023-10-09T02:03:19;18.37;;;5.13;;
15287;SDS011;7745;48.708;9.026;2023-10-09T02:05:49;14.93;;;5.93;;
15287;SDS011;7745;48.708;9.026;2023-10-09T02:08:18;12.47;;;5.57;;
15287;SDS011;7745;48.708;9.026;2023-10-09T02:10:48;16.03;;;5.73;;
15287;SDS011;7745;48.708;9.026;2023-10-09T02:13:20;20.83;;;7.80;;
15287;SDS011;7745;48.708;9.026;2023-10-09T02:15:55;11.93;;;5.93;;
15287;SDS011;7745;48.708;9.026;2023-10-09T02:18:24;14.40;;;5.37;;
15287;SDS011;7745;48.708;9.026;2023-10-09T02:21:05;16.20;;;5.83;;
15287;SDS011;7745;48.708;9.026;2023-10-09T02:23:38;21.07;;;5.93;;
15287;SDS011;7745;48.708;9.026;2023-10-09T02:26:13;15.63;;;5.27;;
15287;SDS011;7745;48.708;9.026;2023-10-09T02:28:44;15.37;;;5.07;;
15287;SDS011;7745;48.708;9.026;2023-10-09T02:31:17;11.90;;;5.07;;
15287;SDS011;7745;48.708;9.026;2023-10-09T02:33:47;14.90;;;5.37;;
15287;SDS011;7745;48.708;9.026;2023-10-09T02:36:18;18.47;;;5.60;;
15287;SDS011;7745;48.708;9.026;2023-10-09T02:38:45;20.50;;;5.90;;
15287;SDS011;7745;48.708;9.026;2023-10-09T02:41:15;14.80;;;5.43;;
15287;SDS011;7745;48.708;9.026;2023-10-09T02:43:47;19.47;;;5.50;;
15287;SDS011;7745;48.708;9.026;2023-10-09T02:46:16;13.50;;;4.63;;
15287;SDS011;7745;48.708;9.026;2023-10-09T02:48:45;14.60;;;5.37;;
15287;SDS011;7745;48.708;9.026;2023-10-09T02:51:15;16.13;;;5.43;;
15287;SDS011;7745;48.708;9.026;2023-10-09T02:53:57;15.03;;;5.60;;
15287;SDS011;7745;48.708;9.026;2023-10-09T02:56:34;20.13;;;5.80;;
15287;SDS011;7745;48.708;9.026;2023-10-09T02:59:04;18.43;;;5.30;;
15287;SDS011;7745;48.708;9.026;2023-10-09T03:01:32;15.97;;;5.27;;
15287;SDS011;7745;48.708;9.026;2023-10-09T03:04:00;18.20;;;5.47;;
15287;SDS011;7745;48.708;9.026;2023-10-09T03:06:28;18.47;;;5.77;;
15287;SDS011;7745;48.708;9.026;2023-10-09T03:08:56;17.63;;;6.10;;
15287;SDS011;7745;48.708;9.026;2023-10-09T03:11:23;16.80;;;5.30;;
15287;SDS011;7745;48.708;9.026;2023-10-09T03:13:53;15.40;;;5.37;;
15287;SDS011;7745;48.708;9.026;2023-10-09T03:16:21;18.03;;;5.63;;
15287;SDS011;7745;48.708;9.026;2023-10-09T03:18:48;18.53;;;5.33;;
15287;SDS011;7745;48.708;9.026;2023-10-09T03:21:18;16.70;;;5.70;;
15287;SDS011;7745;48.708;9.026;2023-10-09T03:23:45;14.93;;;5.33;;
15287;SDS011;7745;48.708;9.026;2023-10-09T03:26:15;16.70;;;5.37;;
15287;SDS011;7745;48.708;9.026;2023-10-09T03:28:44;21.03;;;5.60;;
15287;SDS011;7745;48.708;9.026;2023-10-09T03:31:12;17.13;;;5.53;;
15287;SDS011;7745;48.708;9.026;2023-10-09T03:33:39;14.77;;;5.43;;
15287;SDS011;7745;48.708;9.026;2023-10-09T03:36:06;15.87;;;5.70;;
15287;SDS011;7745;48.708;9.026;2023-10-09T03:38:34;17.47;;;5.00;;
15287;SDS011;7745;48.708;9.026;2023-10-09T03:41:02;19.37;;;5.70;;
15287;SDS011;7745;48.708;9.026;2023-10-09T03:43:32;19.93;;;6.00;;
15287;SDS011;7745;48.708;9.026;2023-10-09T03:46:04;16.13;;;5.10;;
15287;SDS011;7745;48.708;9.026;2023-10-09T03:48:41;19.63;;;5.70;;
15287;SDS011;7745;48.708;9.026;2023-10-09T03:51:11;16.97;;;5.67;;
15287;SDS011;7745;48.708;9.026;2023-10-09T03:53:40;13.50;;;5.27;;
15287;SDS011;7745;48.708;9.026;2023-10-09T03:56:08;19.27;;;6.00;;
15287;SDS011;7745;48.708;9.026;2023-10-09T03:58:38;20.57;;;5.73;;
15287;SDS011;7745;48.708;9.026;2023-10-09T04:01:07;21.27;;;6.07;;
15287;SDS011;7745;48.708;9.026;2023-10-09T04:03:38;16.47;;;5.73;;
15287;SDS011;7745;48.708;9.026;2023-10-09T04:06:06;19.33;;;5.33;;
15287;SDS011;7745;48.708;9.026;2023-10-09T04:08:36;21.37;;;5.87;;
15287;SDS011;7745;48.708;9.026;2023-10-09T04:11:05;14.83;;;5.57;;
15287;SDS011;7745;48.708;9.026;2023-10-09T04:13:41;21.03;;;5.53;;
15287;SDS011;7745;48.708;9.026;2023-10-09T04:16:10;18.27;;;5.37;;
15287;SDS011;7745;48.708;9.026;2023-10-09T04:19:00;17.50;;;6.00;;
15287;SDS011;7745;48.708;9.026;2023-10-09T04:21:36;17.10;;;4.87;;
15287;SDS011;7745;48.708;9.026;2023-10-09T04:24:03;18.67;;;5.03;;
15287;SDS011;7745;48.708;9.026;2023-10-09T04:26:48;16.10;;;5.43;;
15287;SDS011;7745;48.708;9.026;2023-10-09T04:29:21;21.80;;;6.27;;
15287;SDS011;7745;48.708;9.026;2023-10-09T04:31:52;18.03;;;6.17;;
15287;SDS011;7745;48.708;9.026;2023-10-09T04:34:21;17.10;;;5.70;;
15287;SDS011;7745;48.708;9.026;2023-10-09T04:36:49;16.40;;;5.67;;
15287;SDS011;7745;48.708;9.026;2023-10-09T04:39:16;15.80;;;6.37;;
15287;SDS011;7745;48.708;9.026;2023-10-09T04:41:57;20.53;;;6.50;;
15287;SDS011;7745;48.708;9.026;2023-10-09T04:44:38;17.13;;;5.83;;
15287;SDS011;7745;48.708;9.026;2023-10-09T04:47:16;17.20;;;6.37;;
15287;SDS011;7745;48.708;9.026;2023-10-09T04:49:51;14.97;;;5.90;;
15287;SDS011;7745;48.708;9.026;2023-10-09T04:52:27;18.67;;;5.47;;
15287;SDS011;7745;48.708;9.026;2023-10-09T04:55:08;16.07;;;6.17;;
15287;SDS011;7745;48.708;9.026;2023-10-09T04:57:43;17.73;;;5.70;;
15287;SDS011;7745;48.708;9.026;2023-10-09T05:00:12;19.70;;;6.00;;
15287;SDS011;7745;48.708;9.026;2023-10-09T05:03:00;13.93;;;5.43;;
15287;SDS011;7745;48.708;9.026;2023-10-09T05:05:34;17.37;;;5.80;;
15287;SDS011;7745;48.708;9.026;2023-10-09T05:08:23;14.90;;;5.80;;
15287;SDS011;7745;48.708;9.026;2023-10-09T05:10:54;21.60;;;6.07;;
15287;SDS011;7745;48.708;9.026;2023-10-09T05:13:40;18.30;;;5.83;;
15287;SDS011;7745;48.708;9.026;2023-10-09T05:16:12;24.67;;;5.97;;
15287;SDS011;7745;48.708;9.026;2023-10-09T05:18:43;19.00;;;5.70;;
15287;SDS011;7745;48.708;9.026;2023-10-09T05:21:22;21.00;;;6.20;;
15287;SDS011;7745;48.708;9.026;2023-10-09T05:24:09;14.57;;;5.83;;
15287;SDS011;7745;48.708;9.026;2023-10-09T05:26:44;14.40;;;5.30;;
15287;SDS011;7745;48.708;9.026;2023-10-09T05:29:16;17.60;;;5.40;;
15287;SDS011;7745;48.708;9.026;2023-10-09T05:32:00;18.93;;;6.33;;
15287;SDS011;7745;48.708;9.026;2023-10-09T05:34:29;16.77;;;5.27;;
15287;SDS011;7745;48.708;9.026;2023-10-09T05:37:01;19.23;;;5.10;;
15287;SDS011;7745;48.708;9.026;2023-10-09T05:39:42;17.80;;;5.37;;
15287;SDS011;7745;48.708;9.026;2023-10-09T05:42:23;17.00;;;5.53;;
15287;SDS011;7745;48.708;9.026;2023-10-09T05:44:53;13.97;;;5.10;;
15287;SDS011;7745;48.708;9.026;2023-10-09T05:47:37;20.53;;;5.87;;
15287;SDS011;7745;48.708;9.026;2023-10-09T05:50:13;18.27;;;6.40;;
15287;SDS011;7745;48.708;9.026;2023-10-09T05:53:10;17.20;;;6.20;;
15287;SDS011;7745;48.708;9.026;2023-10-09T05:55:59;18.00;;;6.73;;
15287;SDS011;7745;48.708;9.026;2023-10-09T05:58:43;17.07;;;6.03;;
15287;SDS011;7745;48.708;9.026;2023-10-09T06:01:28;18.83;;;5.53;;
15287;SDS011;7745;48.708;9.026;2023-10-09T06:04:12;19.50;;;6.03;;
15287;SDS011;7745;48.708;9.026;2023-10-09T06:06:41;16.00;;;5.40;;
15287;SDS011;7745;48.708;9.026;2023-10-09T06:09:13;16.10;;;5.60;;
15287;SDS011;7745;48.708;9.026;2023-10-09T06:12:14;16.07;;;5.43;;
15287;SDS011;7745;48.708;9.026;2023-10-09T06:14:55;16.60;;;5.60;;
15287;SDS011;7745;48.708;9.026;2023-10-09T06:17:44;18.40;;;4.93;;
15287;SDS011;7745;48.708;9.026;2023-10-09T06:20:15;20.50;;;5.80;;
15287;SDS011;7745;48.708;9.026;2023-10-09T06:22:58;21.03;;;5.13;;
15287;SDS011;7745;48.708;9.026;2023-10-09T06:25:41;20.20;;;5.23;;
15287;SDS011;7745;48.708;9.026;2023-10-09T06:28:16;19.10;;;5.03;;
15287;SDS011;7745;48.708;9.026;2023-10-09T06:30:57;17.23;;;5.40;;
15287;SDS011;7745;48.708;9.026;2023-10-09T06:33:43;15.53;;;5.47;;
15287;SDS011;7745;48.708;9.026;2023-10-09T06:36:32;20.30;;;5.17;;
15287;SDS011;7745;48.708;9.026;2023-10-09T06:38:58;17.20;;;4.83;;
15287;SDS011;7745;48.708;9.026;2023-10-09T06:41:56;15.10;;;4.97;;
15287;SDS011;7745;48.708;9.026;2023-10-09T06:44:34;16.00;;;4.93;;
15287;SDS011;7745;48.708;9.026;2023-10-09T06:47:15;14.77;;;5.00;;
15287;SDS011;7745;48.708;9.026;2023-10-09T06:49:43;14.80;;;4.77;;
15287;SDS011;7745;48.708;9.026;2023-10-09T06:52:30;18.10;;;5.53;;
15287;SDS011;7745;48.708;9.026;2023-10-09T06:55:11;25.03;;;6.37;;
15287;SDS011;7745;48.708;9.026;2023-10-09T06:57:46;24.67;;;6.60;;
15287;SDS011;7745;48.708;9.026;2023-10-09T07:00:14;19.80;;;5.90;;
15287;SDS011;7745;48.708;9.026;2023-10-09T07:02:55;18.03;;;5.77;;
15287;SDS011;7745;48.708;9.026;2023-10-09T07:05:22;17.83;;;5.40;;
15287;SDS011;7745;48.708;9.026;2023-10-09T07:07:56;22.73;;;6.37;;
15287;SDS011;7745;48.708;9.026;2023-10-09T07:10:42;18.07;;;5.80;;
15287;SDS011;7745;48.708;9.026;2023-10-09T07:13:28;17.80;;;5.80;;
15287;SDS011;7745;48.708;9.026;2023-10-09T07:15:55;15.47;;;5.07;;
15287;SDS011;7745;48.708;9.026;2023-10-09T07:18:39;21.27;;;5.63;;
15287;SDS011;7745;48.708;9.026;2023-10-09T07:21:14;17.67;;;5.57;;
15287;SDS011;7745;48.708;9.026;2023-10-09T07:23:52;15.87;;;4.83;;
15287;SDS011;7745;48.708;9.026;2023-10-09T07:26:21;20.13;;;5.37;;
15287;SDS011;7745;48.708;9.026;2023-10-09T07:29:03;19.33;;;5.00;;
15287;SDS011;7745;48.708;9.026;2023-10-09T07:31:46;18.03;;;5.43;;
15287;SDS011;7745;48.708;9.026;2023-10-09T07:34:22;12.23;;;4.40;;
15287;SDS011;7745;48.708;9.026;2023-10-09T07:37:17;13.77;;;4.77;;
15287;SDS011;7745;48.708;9.026;2023-10-09T07:39:47;14.70;;;5.30;;
15287;SDS011;7745;48.708;9.026;2023-10-09T07:42:22;21.70;;;5.60;;
15287;SDS011;7745;48.708;9.026;2023-10-09T07:45:11;17.33;;;4.93;;
15287;SDS011;7745;48.708;9.026;2023-10-09T07:47:58;17.17;;;5.10;;
15287;SDS011;7745;48.708;9.026;2023-10-09T07:50:34;15.73;;;5.47;;
15287;SDS011;7745;48.708;9.026;2023-10-09T07:53:06;16.43;;;5.67;;
15287;SDS011;7745;48.708;9.026;2023-10-09T07:55:51;17.63;;;5.80;;
15287;SDS011;7745;48.708;9.026;2023-10-09T07:58:20;18.50;;;5.23;;
15287;SDS011;7745;48.708;9.026;2023-10-09T08:00:52;19.00;;;5.63;;
15287;SDS011;7745;48.708;9.026;2023-10-09T08:03:40;19.17;;;5.43;;
15287;SDS011;7745;48.708;9.026;2023-10-09T08:06:10;14.83;;;5.40;;
15287;SDS011;7745;48.708;9.026;2023-10-09T08:08:51;22.97;;;6.20;;
15287;SDS011;7745;48.708;9.026;2023-10-09T08:11:32;26.47;;;6.30;;
15287;SDS011;7745;48.708;9.026;2023-10-09T08:14:25;20.97;;;6.10;;
15287;SDS011;7745;48.708;9.026;2023-10-09T08:17:12;22.83;;;5.37;;
15287;SDS011;7745;48.708;9.026;2023-10-09T08:19:46;20.97;;;4.77;;
15287;SDS011;7745;48.708;9.026;2023-10-09T08:22:22;21.13;;;5.93;;
15287;SDS011;7745;48.708;9.026;2023-10-09T08:25:15;24.13;;;6.00;;
15287;SDS011;7745;48.708;9.026;2023-10-09T08:27:53;23.17;;;6.63;;
15287;SDS011;7745;48.708;9.026;2023-10-09T08:30:22;24.13;;;5.60;;
15287;SDS011;7745;48.708;9.026;2023-10-09T08:33:08;25.27;;;5.53;;
15287;SDS011;7745;48.708;9.026;2023-10-09T08:35:54;25.57;;;5.63;;
15287;SDS011;7745;48.708;9.026;2023-10-09T08:38:27;27.67;;;6.63;;
15287;SDS011;7745;48.708;9.026;2023-10-09T08:41:05;25.90;;;5.80;;
15287;SDS011;7745;48.708;9.026;2023-10-09T08:43:41;28.00;;;6.30;;
15287;SDS011;7745;48.708;9.026;2023-10-09T08:46:19;26.47;;;5.57;;
15287;SDS011;7745;48.708;9.026;2023-10-09T08:48:49;23.30;;;5.37;;
15287;SDS011;7745;48.708;9.026;2023-10-09T08:51:19;20.50;;;5.60;;
15287;SDS011;7745;48.708;9.026;2023-10-09T08:53:46;22.10;;;5.77;;
15287;SDS011;7745;48.708;9.026;2023-10-09T08:56:13;16.33;;;5.17;;
15287;SDS011;7745;48.708;9.026;2023-10-09T08:58:47;21.60;;;5.03;;
15287;SDS011;7745;48.708;9.026;2023-10-09T09:01:15;19.37;;;5.33;;
15287;SDS011;7745;48.708;9.026;2023-10-09T09:03:44;20.73;;;5.10;;
15287;SDS011;7745;48.708;9.026;2023-10-09T09:06:13;14.03;;;4.73;;
15287;SDS011;7745;48.708;9.026;2023-10-09T09:08:40;24.23;;;5.03;;
15287;SDS011;7745;48.708;9.026;2023-10-09T09:11:10;20.47;;;5.40;;
15287;SDS011;7745;48.708;9.026;2023-10-09T09:13:43;23.90;;;6.00;;
15287;SDS011;7745;48.708;9.026;2023-10-09T09:16:15;20.07;;;5.40;;
15287;SDS011;7745;48.708;9.026;2023-10-09T09:18:48;17.83;;;5.30;;
15287;SDS011;7745;48.708;9.026;2023-10-09T09:21:19;19.77;;;5.13;;
15287;SDS011;7745;48.708;9.026;2023-10-09T09:23:52;22.63;;;5.83;;
15287;SDS011;7745;48.708;9.026;2023-10-09T09:26:32;21.30;;;5.67;;
15287;SDS011;7745;48.708;9.026;2023-10-09T09:29:02;21.50;;;5.63;;
15287;SDS011;7745;48.708;9.026;2023-10-09T09:31:33;22.33;;;5.63;;
15287;SDS011;7745;48.708;9.026;2023-10-09T09:34:04;22.37;;;5.57;;
15287;SDS011;7745;48.708;9.026;2023-10-09T09:36:50;21.70;;;4.80;;
15287;SDS011;7745;48.708;9.026;2023-10-09T09:39:24;18.33;;;5.43;;
15287;SDS011;7745;48.708;9.026;2023-10-09T09:41:55;19.93;;;4.60;;
15287;SDS011;7745;48.708;9.026;2023-10-09T09:44:28;19.40;;;5.20;;
15287;SDS011;7745;48.708;9.026;2023-10-09T09:46:58;24.87;;;5.67;;
15287;SDS011;7745;48.708;9.026;2023-10-09T09:49:26;23.90;;;5.97;;
15287;SDS011;7745;48.708;9.026;2023-10-09T09:51:58;14.90;;;5.20;;
15287;SDS011;7745;48.708;9.026;2023-10-09T09:54:35;23.37;;;4.80;;
15287;SDS011;7745;48.708;9.026;2023-10-09T09:57:03;17.17;;;4.70;;
15287;SDS011;7745;48.708;9.026;2023-10-09T09:59:36;23.13;;;5.00;;
15287;SDS011;7745;48.708;9.026;2023-10-09T10:02:15;20.43;;;5.03;;
15287;SDS011;7745;48.708;9.026;2023-10-09T10:04:50;26.67;;;5.73;;
15287;SDS011;7745;48.708;9.026;2023-10-09T10:07:22;18.83;;;5.07;;
15287;SDS011;7745;48.708;9.026;2023-10-09T10:09:51;19.40;;;4.87;;
15287;SDS011;7745;48.708;9.026;2023-10-09T10:18:30;20.93;;;5.30;;
15287;SDS011;7745;48.708;9.026;2023-10-09T10:21:11;25.57;;;5.53;;
15287;SDS011;7745;48.708;9.026;2023-10-09T10:23:44;25.20;;;5.30;;
15287;SDS011;7745;48.708;9.026;2023-10-09T10:26:17;26.13;;;6.13;;
15287;SDS011;7745;48.708;9.026;2023-10-09T10:31:51;27.90;;;6.13;;
15287;SDS011;7745;48.708;9.026;2023-10-09T10:34:22;27.83;;;5.40;;
15287;SDS011;7745;48.708;9.026;2023-10-09T10:36:50;17.92;;;5.40;;
15287;SDS011;7745;48.708;9.026;2023-10-09T10:39:24;24.33;;;6.68;;
15287;SDS011;7745;48.708;9.026;2023-10-09T10:42:05;25.73;;;6.38;;
15287;SDS011;7745;48.708;9.026;2023-10-09T10:44:34;26.27;;;6.45;;
15287;SDS011;7745;48.708;9.026;2023-10-09T10:47:07;25.80;;;6.88;;
15287;SDS011;7745;48.708;9.026;2023-10-09T10:49:47;25.25;;;6.57;;
15287;SDS011;7745;48.708;9.026;2023-10-09T10:52:23;22.17;;;6.50;;
15287;SDS011;7745;48.708;9.026;2023-10-09T10:55:08;23.83;;;6.28;;
15287;SDS011;7745;48.708;9.026;2023-10-09T10:57:43;26.75;;;5.55;;
15287;SDS011;7745;48.708;9.026;2023-10-09T11:00:20;25.42;;;6.10;;
15287;SDS011;7745;48.708;9.026;2023-10-09T11:03:04;25.42;;;5.95;;
15287;SDS011;7745;48.708;9.026;2023-10-09T11:05:42;24.42;;;5.45;;
15287;SDS011;7745;48.708;9.026;2023-10-09T11:08:15;27.00;;;5.60;;
15287;SDS011;7745;48.708;9.026;2023-10-09T11:10:48;24.13;;;5.57;;
15287;SDS011;7745;48.708;9.026;2023-10-09T11:13:22;25.63;;;5.53;;
15287;SDS011;7745;48.708;9.026;2023-10-09T11:15:58;27.55;;;5.80;;
15287;SDS011;7745;48.708;9.026;2023-10-09T11:18:40;20.63;;;5.28;;
15287;SDS011;7745;48.708;9.026;2023-10-09T11:21:12;26.65;;;5.15;;
15287;SDS011;7745;48.708;9.026;2023-10-09T11:23:56;23.35;;;4.78;;
15287;SDS011;7745;48.708;9.026;2023-10-09T11:26:48;24.90;;;5.10;;
15287;SDS011;7745;48.708;9.026;2023-10-09T11:29:20;20.65;;;5.70;;
15287;SDS011;7745;48.708;9.026;2023-10-09T11:31:57;24.63;;;4.90;;
15287;SDS011;7745;48.708;9.026;2023-10-09T11:34:24;21.15;;;4.45;;
15287;SDS011;7745;48.708;9.026;2023-10-09T11:37:00;23.80;;;4.88;;
15287;SDS011;7745;48.708;9.026;2023-10-09T11:39:28;24.10;;;5.63;;
15287;SDS011;7745;48.708;9.026;2023-10-09T11:42:04;19.58;;;5.03;;
15287;SDS011;7745;48.708;9.026;2023-10-09T11:44:36;17.73;;;4.88;;
15287;SDS011;7745;48.708;9.026;2023-10-09T11:47:04;20.63;;;5.50;;
15287;SDS011;7745;48.708;9.026;2023-10-09T11:49:48;26.92;;;6.25;;
15287;SDS011;7745;48.708;9.026;2023-10-09T11:52:21;12.93;;;4.55;;
15287;SDS011;7745;48.708;9.026;2023-10-09T11:55:02;18.60;;;5.57;;
15287;SDS011;7745;48.708;9.026;2023-10-09T11:57:33;13.60;;;4.97;;
15287;SDS011;7745;48.708;9.026;2023-10-09T12:00:00;12.23;;;5.15;;
15287;SDS011;7745;48.708;9.026;2023-10-09T12:02:35;17.10;;;5.20;;
15287;SDS011;7745;48.708;9.026;2023-10-09T12:05:09;13.55;;;4.68;;
15287;SDS011;7745;48.708;9.026;2023-10-09T12:07:42;13.57;;;5.35;;
15287;SDS011;7745;48.708;9.026;2023-10-09T12:10:09;13.70;;;4.88;;
15287;SDS011;7745;48.708;9.026;2023-10-09T12:12:40;11.40;;;5.47;;
15287;SDS011;7745;48.708;9.026;2023-10-09T12:15:11;17.58;;;5.28;;
15287;SDS011;7745;48.708;9.026;2023-10-09T12:17:42;11.05;;;4.88;;
15287;SDS011;7745;48.708;9.026;2023-10-09T12:20:12;14.05;;;5.32;;
15287;SDS011;7745;48.708;9.026;2023-10-09T12:22:56;14.35;;;5.78;;
15287;SDS011;7745;48.708;9.026;2023-10-09T12:25:24;12.02;;;5.55;;
15287;SDS011;7745;48.708;9.026;2023-10-09T12:27:55;10.23;;;5.85;;
15287;SDS011;7745;48.708;9.026;2023-10-09T12:30:22;14.77;;;6.35;;
15287;SDS011;7745;48.708;9.026;2023-10-09T12:32:52;16.25;;;5.93;;
15287;SDS011;7745;48.708;9.026;2023-10-09T12:35:20;12.50;;;5.28;;
15287;SDS011;7745;48.708;9.026;2023-10-09T12:37:49;13.60;;;4.90;;
15287;SDS011;7745;48.708;9.026;2023-10-09T12:40:17;13.90;;;5.15;;
15287;SDS011;7745;48.708;9.026;2023-10-09T12:42:50;14.80;;;4.65;;
15287;SDS011;7745;48.708;9.026;2023-10-09T12:45:20;18.50;;;5.03;;
15287;SDS011;7745;48.708;9.026;2023-10-09T12:47:51;21.73;;;6.10;;
15287;SDS011;7745;48.708;9.026;2023-10-09T12:50:19;18.33;;;4.82;;
15287;SDS011;7745;48.708;9.026;2023-10-09T12:52:53;19.85;;;5.07;;
15287;SDS011;7745;48.708;9.026;2023-10-09T12:55:26;16.42;;;4.90;;
15287;SDS011;7745;48.708;9.026;2023-10-09T12:57:58;26.92;;;5.22;;
15287;SDS011;7745;48.708;9.026;2023-10-09T13:00:31;11.48;;;4.82;;
15287;SDS011;7745;48.708;9.026;2023-10-09T13:03:02;17.55;;;4.78;;
15287;SDS011;7745;48.708;9.026;2023-10-09T13:05:42;14.05;;;4.50;;
15287;SDS011;7745;48.708;9.026;2023-10-09T13:08:17;19.95;;;5.68;;
15287;SDS011;7745;48.708;9.026;2023-10-09T13:10:47;17.67;;;5.22;;
15287;SDS011;7745;48.708;9.026;2023-10-09T13:13:24;22.45;;;4.93;;
15287;SDS011;7745;48.708;9.026;2023-10-09T13:16:02;14.40;;;5.35;;
15287;SDS011;7745;48.708;9.026;2023-10-09T13:18:31;16.05;;;5.18;;
15287;SDS011;7745;48.708;9.026;2023-10-09T13:20:58;15.18;;;5.32;;
15287;SDS011;7745;48.708;9.026;2023-10-09T13:23:29;15.93;;;5.50;;
15287;SDS011;7745;48.708;9.026;2023-10-09T13:26:03;13.77;;;5.47;;
15287;SDS011;7745;48.708;9.026;2023-10-09T13:28:44;9.95;;;4.90;;
15287;SDS011;7745;48.708;9.026;2023-10-09T13:31:12;13.60;;;5.50;;
15287;SDS011;7745;48.708;9.026;2023-10-09T13:33:40;16.67;;;5.40;;
15287;SDS011;7745;48.708;9.026;2023-10-09T13:36:07;12.43;;;5.25;;
15287;SDS011;7745;48.708;9.026;2023-10-09T13:38:41;11.60;;;5.03;;
15287;SDS011;7745;48.708;9.026;2023-10-09T13:41:09;11.93;;;5.20;;
15287;SDS011;7745;48.708;9.026;2023-10-09T13:43:38;10.88;;;4.88;;
15287;SDS011;7745;48.708;9.026;2023-10-09T13:46:08;8.75;;;4.60;;
15287;SDS011;7745;48.708;9.026;2023-10-09T13:48:37;9.48;;;4.60;;
15287;SDS011;7745;48.708;9.026;2023-10-09T13:51:06;14.43;;;5.38;;
15287;SDS011;7745;48.708;9.026;2023-10-09T13:53:38;9.75;;;5.32;;
15287;SDS011;7745;48.708;9.026;2023-10-09T13:56:10;13.93;;;5.30;;
15287;SDS011;7745;48.708;9.026;2023-10-09T13:58:39;13.43;;;5.40;;
15287;SDS011;7745;48.708;9.026;2023-10-09T14:01:09;8.75;;;5.03;;
15287;SDS011;7745;48.708;9.026;2023-10-09T14:03:36;9.60;;;5.22;;
15287;SDS011;7745;48.708;9.026;2023-10-09T14:06:03;11.00;;;5.43;;
15287;SDS011;7745;48.708;9.026;2023-10-09T14:08:37;11.60;;;5.65;;
15287;SDS011;7745;48.708;9.026;2023-10-09T14:11:07;15.20;;;5.45;;
15287;SDS011;7745;48.708;9.026;2023-10-09T14:13:38;11.88;;;5.50;;
15287;SDS011;7745;48.708;9.026;2023-10-09T14:16:05;10.48;;;5.32;;
15287;SDS011;7745;48.708;9.026;2023-10-09T14:18:33;15.43;;;5.75;;
15287;SDS011;7745;48.708;9.026;2023-10-09T14:21:00;9.35;;;5.20;;
15287;SDS011;7745;48.708;9.026;2023-10-09T14:23:29;11.75;;;5.90;;
15287;SDS011;7745;48.708;9.026;2023-10-09T14:25:57;13.50;;;6.20;;
15287;SDS011;7745;48.708;9.026;2023-10-09T14:28:26;11.00;;;5.47;;
15287;SDS011;7745;48.708;9.026;2023-10-09T14:30:54;13.15;;;5.90;;
15287;SDS011;7745;48.708;9.026;2023-10-09T14:33:25;11.13;;;6.03;;
15287;SDS011;7745;48.708;9.026;2023-10-09T14:35:55;11.50;;;5.88;;
15287;SDS011;7745;48.708;9.026;2023-10-09T14:38:23;13.13;;;5.90;;
15287;SDS011;7745;48.708;9.026;2023-10-09T14:40:57;10.38;;;5.20;;
15287;SDS011;7745;48.708;9.026;2023-10-09T14:43:25;12.45;;;6.47;;
15287;SDS011;7745;48.708;9.026;2023-10-09T14:45:54;11.38;;;5.57;;
15287;SDS011;7745;48.708;9.026;2023-10-09T14:48:22;10.00;;;5.32;;
15287;SDS011;7745;48.708;9.026;2023-10-09T14:50:52;10.95;;;5.45;;
15287;SDS011;7745;48.708;9.026;2023-10-09T14:53:29;11.10;;;5.43;;
15287;SDS011;7745;48.708;9.026;2023-10-09T14:55:57;14.20;;;5.32;;
15287;SDS011;7745;48.708;9.026;2023-10-09T14:58:26;10.50;;;5.68;;
15287;SDS011;7745;48.708;9.026;2023-10-09T15:00:54;12.63;;;5.60;;
15287;SDS011;7745;48.708;9.026;2023-10-09T15:03:21;14.05;;;5.63;;
15287;SDS011;7745;48.708;9.026;2023-10-09T15:05:48;16.20;;;5.50;;
15287;SDS011;7745;48.708;9.026;2023-10-09T15:08:17;15.82;;;6.00;;
15287;SDS011;7745;48.708;9.026;2023-10-09T15:10:44;18.65;;;5.70;;
15287;SDS011;7745;48.708;9.026;2023-10-09T15:13:12;12.45;;;5.13;;
15287;SDS011;7745;48.708;9.026;2023-10-09T15:15:42;16.60;;;6.18;;
15287;SDS011;7745;48.708;9.026;2023-10-09T15:18:09;14.25;;;5.78;;
15287;SDS011;7745;48.708;9.026;2023-10-09T15:20:38;18.90;;;5.55;;
15287;SDS011;7745;48.708;9.026;2023-10-09T15:23:06;22.55;;;5.57;;
15287;SDS011;7745;48.708;9.026;2023-10-09T15:25:35;18.92;;;5.78;;
15287;SDS011;7745;48.708;9.026;2023-10-09T15:28:04;19.98;;;5.40;;
15287;SDS011;7745;48.708;9.026;2023-10-09T15:30:32;13.88;;;5.28;;
15287;SDS011;7745;48.708;9.026;2023-10-09T15:32:59;21.00;;;6.35;;
15287;SDS011;7745;48.708;9.026;2023-10-09T15:35:27;20.77;;;5.80;;